Airfield :
LOGIN :

Register | Disclaimer

   EN    FR    IT 

 










Legend :    VFR   Marginal VFR   IFR   Intensive IFR   Very Intensive IFR
Visi :
Ceiling :
>= 8 km
>= 3000ft
5 to 8 km
1000 to 3000 ft
1500m to 5 km
500 to 1000 ft
800 to 1500m
200 to 500 ft
< 800m
< 200 ft
Symbols :   Thunderstorms  Fog  Heavy snow  Heavy precipitations  Wind > 20 kt
SIGMETs :     Misc.  Thunderstorms  Icing  Turbulence  Mountain Waves  Volcanic Ashes






- Airport Elevation : 622 ft
- IATA code : BRS


EGGD - Bristol Int.

CURRENT METAR :
  • 041620Z AUTO 18012KT 9999 NCD 14/02 Q1016

EXPIRED METARs :
  • 041550Z AUTO 18012KT 9999 FEW048 14/02 Q1017
  • 041520Z AUTO 17013KT 9999 SCT046 13/03 Q1017
  • 041450Z AUTO 17011KT 9999 OVC046 13/03 Q1017
  • 041420Z AUTO 17011KT 9999 FEW040 OVC047 13/04 Q1018
  • 041350Z AUTO 17014KT 9999 FEW040 14/04 Q1018
  • 041320Z AUTO 16015KT 9999 BKN037 13/04 Q1018

TAF TAF EGGD
Valid from the 04 at 12:00 until the 05 at 12:00 UTC


041101Z 0412/0512 13014KT 9999 FEW045
TEMPO 0421/0506 14020G30KT
ATIS : +44 1275 473 666



MET'MAP, your aeronautical weather chart ! - Copyright ORBIFLY December 2007 - Disclaimer

ORBIFLY MET'MAP TEAM :

Programming & Development : Alexandra Zaïnal
Concept & original design : Baudouin d'Aumeries
Assistance for programming : Marc-Olivier Méhu
Technical & hardware support : Manuel Goepfert

Contact : metmap@orbifly.com




SOURCES & CREDITS :

   NOAA